Agness, Oregon
Current Conditions -  °F | °C
As of 1:56 PM on Friday 31 Oct 2014 (Local Time) from KBOK Reporting Station
Clear Clear  
Wind Chill: 14°   Ceiling: Unl
Heat Index: 14°   Visibility: 10mi
Dew Point: 11°   Wind: 6mph
Humidity: 77%   Direction: NA
Pressure: 29.84"   Gusts: NA
Location:  42.56°N, 124.07°W
Report Text: KBOK 312056Z AUTO VRB05KT 10SM CLR 14/11 A2984 RMK AO2 56014 T01440105 SLP105
Loading
Personal Weather Stations






























Interactive Weather Map
Tropical Storm Tracking
New forecast layout! Learn more

10-Day Weather Forecast

Advertisements
Track Severe Weather on mobile